sensor_id;sensor_type;location;lat;lon;timestamp;pressure;altitude;pressure_sealevel;temperature;humidity
60345;BME280;46188;52.324;8.032;2022-07-25T00:02:22;100092.72;;;21.47;68.36
60345;BME280;46188;52.324;8.032;2022-07-25T00:04:47;100098.09;;;21.47;68.15
60345;BME280;46188;52.324;8.032;2022-07-25T00:07:13;100091.09;;;21.43;68.46
60345;BME280;46188;52.324;8.032;2022-07-25T00:09:38;100088.53;;;21.39;68.84
60345;BME280;46188;52.324;8.032;2022-07-25T00:12:04;100092.28;;;21.35;69.52
60345;BME280;46188;52.324;8.032;2022-07-25T00:14:30;100085.16;;;21.34;69.26
60345;BME280;46188;52.324;8.032;2022-07-25T00:16:55;100083.28;;;21.36;69.01
60345;BME280;46188;52.324;8.032;2022-07-25T00:19:20;100080.88;;;21.30;68.49
60345;BME280;46188;52.324;8.032;2022-07-25T00:21:46;100077.50;;;21.25;69.09
60345;BME280;46188;52.324;8.032;2022-07-25T00:24:11;100065.19;;;21.19;69.64
60345;BME280;46188;52.324;8.032;2022-07-25T00:26:37;100059.09;;;21.16;69.46
60345;BME280;46188;52.324;8.032;2022-07-25T00:29:02;100058.09;;;21.18;69.32
60345;BME280;46188;52.324;8.032;2022-07-25T00:31:28;100058.97;;;21.19;70.02
60345;BME280;46188;52.324;8.032;2022-07-25T00:33:53;100058.22;;;21.15;70.99
60345;BME280;46188;52.324;8.032;2022-07-25T00:36:19;100052.91;;;21.14;70.30
60345;BME280;46188;52.324;8.032;2022-07-25T00:38:45;100058.28;;;21.14;70.42
60345;BME280;46188;52.324;8.032;2022-07-25T00:41:10;100043.34;;;21.07;70.21
60345;BME280;46188;52.324;8.032;2022-07-25T00:43:36;100045.22;;;21.05;69.89
60345;BME280;46188;52.324;8.032;2022-07-25T00:46:01;100039.97;;;21.01;69.86
60345;BME280;46188;52.324;8.032;2022-07-25T00:48:27;100040.81;;;21.04;69.78
60345;BME280;46188;52.324;8.032;2022-07-25T00:50:54;100030.22;;;21.00;71.16
60345;BME280;46188;52.324;8.032;2022-07-25T00:53:21;100033.69;;;21.02;70.59
60345;BME280;46188;52.324;8.032;2022-07-25T00:55:46;100026.91;;;20.94;70.82
60345;BME280;46188;52.324;8.032;2022-07-25T00:58:12;100027.06;;;20.89;70.67
60345;BME280;46188;52.324;8.032;2022-07-25T01:00:37;100028.94;;;20.87;70.15
60345;BME280;46188;52.324;8.032;2022-07-25T01:03:03;100021.84;;;20.86;70.66
60345;BME280;46188;52.324;8.032;2022-07-25T01:05:28;100024.28;;;20.92;70.56
60345;BME280;46188;52.324;8.032;2022-07-25T01:07:54;100035.97;;;20.90;70.59
60345;BME280;46188;52.324;8.032;2022-07-25T01:10:19;100020.75;;;20.90;71.05
60345;BME280;46188;52.324;8.032;2022-07-25T01:12:50;100027.31;;;20.83;70.99
60345;BME280;46188;52.324;8.032;2022-07-25T01:15:20;100018.41;;;20.82;71.37
60345;BME280;46188;52.324;8.032;2022-07-25T01:17:46;100011.34;;;20.80;71.22
60345;BME280;46188;52.324;8.032;2022-07-25T01:20:16;100014.72;;;20.85;71.07
60345;BME280;46188;52.324;8.032;2022-07-25T01:22:43;100017.66;;;20.79;71.34
60345;BME280;46188;52.324;8.032;2022-07-25T01:25:09;100000.75;;;20.77;70.81
60345;BME280;46188;52.324;8.032;2022-07-25T01:27:35;100006.38;;;20.71;72.25
60345;BME280;46188;52.324;8.032;2022-07-25T01:30:00;100010.78;;;20.72;72.26
60345;BME280;46188;52.324;8.032;2022-07-25T01:32:26;100009.84;;;20.73;71.94
60345;BME280;46188;52.324;8.032;2022-07-25T01:34:51;100008.44;;;20.62;72.44
60345;BME280;46188;52.324;8.032;2022-07-25T01:37:17;100004.72;;;20.67;72.11
60345;BME280;46188;52.324;8.032;2022-07-25T01:39:42;100005.72;;;20.64;71.68
60345;BME280;46188;52.324;8.032;2022-07-25T01:42:08;100000.25;;;20.67;71.13
60345;BME280;46188;52.324;8.032;2022-07-25T01:44:33;100003.13;;;20.61;71.16
60345;BME280;46188;52.324;8.032;2022-07-25T01:46:59;100003.06;;;20.62;70.55
60345;BME280;46188;52.324;8.032;2022-07-25T01:49:24;99995.88;;;20.64;70.90
60345;BME280;46188;52.324;8.032;2022-07-25T01:51:51;100001.41;;;20.58;70.94
60345;BME280;46188;52.324;8.032;2022-07-25T01:54:17;100000.56;;;20.58;70.76
60345;BME280;46188;52.324;8.032;2022-07-25T01:56:43;99998.81;;;20.57;70.78
60345;BME280;46188;52.324;8.032;2022-07-25T01:59:09;99993.50;;;20.55;70.69
60345;BME280;46188;52.324;8.032;2022-07-25T02:01:35;99994.28;;;20.59;70.75
60345;BME280;46188;52.324;8.032;2022-07-25T02:04:01;99995.38;;;20.53;72.37
60345;BME280;46188;52.324;8.032;2022-07-25T02:06:26;99982.03;;;20.52;71.28
60345;BME280;46188;52.324;8.032;2022-07-25T02:08:52;99982.72;;;20.57;71.40
60345;BME280;46188;52.324;8.032;2022-07-25T02:11:17;99977.63;;;20.51;72.17
60345;BME280;46188;52.324;8.032;2022-07-25T02:13:42;99981.56;;;20.40;72.79
60345;BME280;46188;52.324;8.032;2022-07-25T02:16:09;99975.56;;;20.34;72.72
60345;BME280;46188;52.324;8.032;2022-07-25T02:18:34;99973.94;;;20.30;73.22
60345;BME280;46188;52.324;8.032;2022-07-25T02:21:00;99972.25;;;20.27;73.44
60345;BME280;46188;52.324;8.032;2022-07-25T02:23:25;99966.84;;;20.28;72.62
60345;BME280;46188;52.324;8.032;2022-07-25T02:25:51;99971.34;;;20.28;72.00
60345;BME280;46188;52.324;8.032;2022-07-25T02:28:16;99965.88;;;20.31;71.54
60345;BME280;46188;52.324;8.032;2022-07-25T02:30:42;99970.75;;;20.20;72.46
60345;BME280;46188;52.324;8.032;2022-07-25T02:33:08;99965.59;;;20.14;72.24
60345;BME280;46188;52.324;8.032;2022-07-25T02:35:33;99963.94;;;20.11;72.92
60345;BME280;46188;52.324;8.032;2022-07-25T02:37:59;99952.97;;;20.17;73.48
60345;BME280;46188;52.324;8.032;2022-07-25T02:40:24;99954.09;;;20.12;73.66
60345;BME280;46188;52.324;8.032;2022-07-25T02:42:50;99948.91;;;20.07;74.21
60345;BME280;46188;52.324;8.032;2022-07-25T02:45:16;99941.97;;;20.01;73.82
60345;BME280;46188;52.324;8.032;2022-07-25T02:47:42;99938.41;;;20.01;73.66
60345;BME280;46188;52.324;8.032;2022-07-25T02:50:07;99933.78;;;19.81;74.55
60345;BME280;46188;52.324;8.032;2022-07-25T02:52:33;99930.53;;;19.71;73.36
60345;BME280;46188;52.324;8.032;2022-07-25T02:54:59;99930.78;;;19.65;74.18
60345;BME280;46188;52.324;8.032;2022-07-25T02:57:24;99928.91;;;19.67;74.63
60345;BME280;46188;52.324;8.032;2022-07-25T02:59:50;99923.63;;;19.65;74.55
60345;BME280;46188;52.324;8.032;2022-07-25T03:02:15;99931.69;;;19.64;73.45
60345;BME280;46188;52.324;8.032;2022-07-25T03:04:40;99928.97;;;19.65;72.88
60345;BME280;46188;52.324;8.032;2022-07-25T03:07:06;99929.00;;;19.64;72.97
60345;BME280;46188;52.324;8.032;2022-07-25T03:09:31;99923.66;;;19.64;72.74
60345;BME280;46188;52.324;8.032;2022-07-25T03:11:57;99913.22;;;19.56;72.71
60345;BME280;46188;52.324;8.032;2022-07-25T03:14:22;99909.63;;;19.57;71.91
60345;BME280;46188;52.324;8.032;2022-07-25T03:16:48;99907.06;;;19.54;72.12
60345;BME280;46188;52.324;8.032;2022-07-25T03:19:13;99908.94;;;19.52;72.28
60345;BME280;46188;52.324;8.032;2022-07-25T03:21:39;99907.47;;;19.43;71.81
60345;BME280;46188;52.324;8.032;2022-07-25T03:24:04;99916.25;;;19.47;71.95
60345;BME280;46188;52.324;8.032;2022-07-25T03:26:30;99906.34;;;19.49;72.28
60345;BME280;46188;52.324;8.032;2022-07-25T03:28:55;99912.38;;;19.55;71.90
60345;BME280;46188;52.324;8.032;2022-07-25T03:31:21;99903.59;;;19.52;71.62
60345;BME280;46188;52.324;8.032;2022-07-25T03:33:46;99906.25;;;19.52;72.24
60345;BME280;46188;52.324;8.032;2022-07-25T03:36:12;99907.97;;;19.54;71.66
60345;BME280;46188;52.324;8.032;2022-07-25T03:38:37;99898.19;;;19.53;71.17
60345;BME280;46188;52.324;8.032;2022-07-25T03:41:04;99895.41;;;19.57;70.39
60345;BME280;46188;52.324;8.032;2022-07-25T03:43:30;99890.97;;;19.55;69.89
60345;BME280;46188;52.324;8.032;2022-07-25T03:45:56;99890.00;;;19.58;70.76
60345;BME280;46188;52.324;8.032;2022-07-25T03:48:21;99896.38;;;19.54;71.69
60345;BME280;46188;52.324;8.032;2022-07-25T03:50:47;99891.72;;;19.59;71.65
60345;BME280;46188;52.324;8.032;2022-07-25T03:53:12;99881.38;;;19.50;71.36
60345;BME280;46188;52.324;8.032;2022-07-25T03:55:38;99882.09;;;19.55;72.08
60345;BME280;46188;52.324;8.032;2022-07-25T03:58:04;99883.75;;;19.58;72.73
60345;BME280;46188;52.324;8.032;2022-07-25T04:00:29;99880.38;;;19.52;73.43
60345;BME280;46188;52.324;8.032;2022-07-25T04:02:55;99874.22;;;19.50;72.54
60345;BME280;46188;52.324;8.032;2022-07-25T04:05:20;99878.66;;;19.51;72.82
60345;BME280;46188;52.324;8.032;2022-07-25T04:07:46;99868.19;;;19.45;73.10
60345;BME280;46188;52.324;8.032;2022-07-25T04:10:11;99871.56;;;19.50;73.12
60345;BME280;46188;52.324;8.032;2022-07-25T04:12:37;99866.38;;;19.46;73.02
60345;BME280;46188;52.324;8.032;2022-07-25T04:15:03;99857.59;;;19.42;73.58
60345;BME280;46188;52.324;8.032;2022-07-25T04:17:29;99858.50;;;19.41;73.63
60345;BME280;46188;52.324;8.032;2022-07-25T04:19:54;99853.16;;;19.41;73.52
60345;BME280;46188;52.324;8.032;2022-07-25T04:22:20;99853.28;;;19.38;74.28
60345;BME280;46188;52.324;8.032;2022-07-25T04:24:46;99854.06;;;19.42;74.62
60345;BME280;46188;52.324;8.032;2022-07-25T04:27:12;99846.84;;;19.44;73.02
60345;BME280;46188;52.324;8.032;2022-07-25T04:29:37;99843.19;;;19.46;73.15
60345;BME280;46188;52.324;8.032;2022-07-25T04:32:03;99840.38;;;19.49;72.88
60345;BME280;46188;52.324;8.032;2022-07-25T04:34:29;99840.34;;;19.51;72.22
60345;BME280;46188;52.324;8.032;2022-07-25T04:36:54;99831.31;;;19.55;72.02
60345;BME280;46188;52.324;8.032;2022-07-25T04:39:20;99830.19;;;19.61;71.64
60345;BME280;46188;52.324;8.032;2022-07-25T04:41:45;99831.84;;;19.65;71.42
60345;BME280;46188;52.324;8.032;2022-07-25T04:44:11;99824.50;;;19.70;71.10
60345;BME280;46188;52.324;8.032;2022-07-25T04:46:36;99821.69;;;19.75;69.74
60345;BME280;46188;52.324;8.032;2022-07-25T04:49:01;99825.94;;;19.80;69.97
60345;BME280;46188;52.324;8.032;2022-07-25T04:51:27;99823.09;;;19.85;69.92
60345;BME280;46188;52.324;8.032;2022-07-25T04:53:52;99823.91;;;19.87;69.68
60345;BME280;46188;52.324;8.032;2022-07-25T04:56:18;99814.91;;;19.89;69.63
60345;BME280;46188;52.324;8.032;2022-07-25T04:58:44;99816.63;;;19.90;70.01
60345;BME280;46188;52.324;8.032;2022-07-25T05:01:09;99812.25;;;19.89;70.79
60345;BME280;46188;52.324;8.032;2022-07-25T05:03:35;99813.78;;;19.95;70.08
60345;BME280;46188;52.324;8.032;2022-07-25T05:06:00;99815.34;;;20.01;70.10
60345;BME280;46188;52.324;8.032;2022-07-25T05:08:26;99810.72;;;20.06;69.31
60345;BME280;46188;52.324;8.032;2022-07-25T05:10:51;99814.13;;;20.09;70.54
60345;BME280;46188;52.324;8.032;2022-07-25T05:13:17;99808.53;;;20.16;70.78
60345;BME280;46188;52.324;8.032;2022-07-25T05:15:42;99817.34;;;20.19;71.27
60345;BME280;46188;52.324;8.032;2022-07-25T05:18:08;99804.69;;;20.23;70.75
60345;BME280;46188;52.324;8.032;2022-07-25T05:20:33;99800.94;;;20.27;70.94
60345;BME280;46188;52.324;8.032;2022-07-25T05:22:59;99800.91;;;20.28;71.04
60345;BME280;46188;52.324;8.032;2022-07-25T05:25:24;99807.81;;;20.34;70.38
60345;BME280;46188;52.324;8.032;2022-07-25T05:27:49;99802.53;;;20.33;70.84
60345;BME280;46188;52.324;8.032;2022-07-25T05:30:16;99793.38;;;20.38;70.14
60345;BME280;46188;52.324;8.032;2022-07-25T05:32:41;99799.53;;;20.40;70.58
60345;BME280;46188;52.324;8.032;2022-07-25T05:35:08;99795.94;;;20.41;70.05
60345;BME280;46188;52.324;8.032;2022-07-25T05:37:35;99795.94;;;20.41;70.57
60345;BME280;46188;52.324;8.032;2022-07-25T05:40:02;99799.47;;;20.42;70.41
60345;BME280;46188;52.324;8.032;2022-07-25T05:42:29;99797.69;;;20.42;70.09
60345;BME280;46188;52.324;8.032;2022-07-25T05:44:54;99793.06;;;20.46;69.55
60345;BME280;46188;52.324;8.032;2022-07-25T05:47:19;99787.66;;;20.48;69.82
60345;BME280;46188;52.324;8.032;2022-07-25T05:49:45;99782.97;;;20.53;69.99
60345;BME280;46188;52.324;8.032;2022-07-25T05:52:11;99784.53;;;20.58;70.05
60345;BME280;46188;52.324;8.032;2022-07-25T05:54:36;99780.75;;;20.64;69.17
60345;BME280;46188;52.324;8.032;2022-07-25T05:57:02;99779.56;;;20.71;69.33
60345;BME280;46188;52.324;8.032;2022-07-25T05:59:27;99780.25;;;20.76;67.86
60345;BME280;46188;52.324;8.032;2022-07-25T06:01:53;99778.97;;;20.85;68.04
60345;BME280;46188;52.324;8.032;2022-07-25T06:04:19;99766.19;;;20.92;67.56
60345;BME280;46188;52.324;8.032;2022-07-25T06:06:44;99773.09;;;20.97;67.23
60345;BME280;46188;52.324;8.032;2022-07-25T06:09:17;99769.16;;;21.06;67.50
60345;BME280;46188;52.324;8.032;2022-07-25T06:11:42;99765.34;;;21.12;67.90
60345;BME280;46188;52.324;8.032;2022-07-25T06:14:07;99764.06;;;21.20;66.66
60345;BME280;46188;52.324;8.032;2022-07-25T06:16:33;99763.63;;;21.30;65.56
60345;BME280;46188;52.324;8.032;2022-07-25T06:18:58;99757.00;;;21.38;65.41
60345;BME280;46188;52.324;8.032;2022-07-25T06:21:24;99755.75;;;21.47;65.90
60345;BME280;46188;52.324;8.032;2022-07-25T06:23:49;99756.34;;;21.54;66.46
60345;BME280;46188;52.324;8.032;2022-07-25T06:26:15;99748.81;;;21.62;66.30
60345;BME280;46188;52.324;8.032;2022-07-25T06:28:40;99756.44;;;21.71;66.08
60345;BME280;46188;52.324;8.032;2022-07-25T06:31:06;99755.19;;;21.79;66.70
60345;BME280;46188;52.324;8.032;2022-07-25T06:33:31;99754.03;;;21.84;65.88
60345;BME280;46188;52.324;8.032;2022-07-25T06:35:57;99750.13;;;21.91;65.95
60345;BME280;46188;52.324;8.032;2022-07-25T06:38:22;99761.59;;;21.95;65.30
60345;BME280;46188;52.324;8.032;2022-07-25T06:40:47;99757.00;;;21.97;67.08
60345;BME280;46188;52.324;8.032;2022-07-25T06:43:13;99753.31;;;22.00;65.76
60345;BME280;46188;52.324;8.032;2022-07-25T06:45:38;99745.13;;;22.03;66.51
60345;BME280;46188;52.324;8.032;2022-07-25T06:48:04;99757.38;;;22.08;63.95
60345;BME280;46188;52.324;8.032;2022-07-25T06:50:30;99747.13;;;22.17;65.56
60345;BME280;46188;52.324;8.032;2022-07-25T06:52:55;99747.13;;;22.36;63.25
60345;BME280;46188;52.324;8.032;2022-07-25T06:55:21;99741.50;;;22.59;62.16
60345;BME280;46188;52.324;8.032;2022-07-25T06:57:46;99738.88;;;22.75;61.00
60345;BME280;46188;52.324;8.032;2022-07-25T07:00:13;99729.97;;;22.92;59.56
60345;BME280;46188;52.324;8.032;2022-07-25T07:02:53;99735.34;;;23.10;58.01
60345;BME280;46188;52.324;8.032;2022-07-25T07:05:23;99732.97;;;23.21;56.41
60345;BME280;46188;52.324;8.032;2022-07-25T07:07:49;99735.88;;;23.34;57.56
60345;BME280;46188;52.324;8.032;2022-07-25T07:10:15;99728.94;;;23.46;58.25
60345;BME280;46188;52.324;8.032;2022-07-25T07:12:40;99727.25;;;23.61;58.44
60345;BME280;46188;52.324;8.032;2022-07-25T07:15:06;99727.69;;;23.69;57.63
60345;BME280;46188;52.324;8.032;2022-07-25T07:17:32;99719.00;;;23.80;57.65
60345;BME280;46188;52.324;8.032;2022-07-25T07:19:57;99721.16;;;23.90;57.85
60345;BME280;46188;52.324;8.032;2022-07-25T07:22:23;99727.91;;;23.98;58.09
60345;BME280;46188;52.324;8.032;2022-07-25T07:24:48;99723.13;;;24.03;56.20
60345;BME280;46188;52.324;8.032;2022-07-25T07:27:13;99723.03;;;24.04;56.19
60345;BME280;46188;52.324;8.032;2022-07-25T07:29:39;99721.28;;;24.19;56.23
60345;BME280;46188;52.324;8.032;2022-07-25T07:32:05;99718.59;;;24.19;56.67
60345;BME280;46188;52.324;8.032;2022-07-25T07:34:31;99720.94;;;24.25;55.85
60345;BME280;46188;52.324;8.032;2022-07-25T07:36:56;99715.72;;;24.38;54.48
60345;BME280;46188;52.324;8.032;2022-07-25T07:39:22;99707.38;;;24.43;54.54
60345;BME280;46188;52.324;8.032;2022-07-25T07:41:47;99712.56;;;24.62;54.50
60345;BME280;46188;52.324;8.032;2022-07-25T07:44:13;99713.75;;;24.72;53.40
60345;BME280;46188;52.324;8.032;2022-07-25T07:46:38;99714.63;;;24.73;54.87
60345;BME280;46188;52.324;8.032;2022-07-25T07:49:04;99713.31;;;24.80;55.15
60345;BME280;46188;52.324;8.032;2022-07-25T07:51:29;99709.25;;;24.87;53.95
60345;BME280;46188;52.324;8.032;2022-07-25T07:53:55;99707.72;;;24.97;53.92
60345;BME280;46188;52.324;8.032;2022-07-25T07:56:39;99692.84;;;25.06;52.72
60345;BME280;46188;52.324;8.032;2022-07-25T07:59:06;99696.88;;;25.13;51.84
60345;BME280;46188;52.324;8.032;2022-07-25T08:01:31;99691.03;;;25.21;52.72
60345;BME280;46188;52.324;8.032;2022-07-25T08:03:57;99688.34;;;25.35;53.18
60345;BME280;46188;52.324;8.032;2022-07-25T08:06:22;99696.34;;;25.51;53.56
60345;BME280;46188;52.324;8.032;2022-07-25T08:08:48;99689.47;;;25.60;53.32
60345;BME280;46188;52.324;8.032;2022-07-25T08:11:13;99688.91;;;25.69;53.85
60345;BME280;46188;52.324;8.032;2022-07-25T08:13:39;99683.50;;;25.69;51.88
60345;BME280;46188;52.324;8.032;2022-07-25T08:16:05;99683.97;;;25.76;51.64
60345;BME280;46188;52.324;8.032;2022-07-25T08:18:31;99684.63;;;25.79;50.77
60345;BME280;46188;52.324;8.032;2022-07-25T08:20:58;99678.19;;;25.82;51.94
60345;BME280;46188;52.324;8.032;2022-07-25T08:23:24;99682.97;;;25.91;52.47
60345;BME280;46188;52.324;8.032;2022-07-25T08:25:52;99674.50;;;25.98;51.32
60345;BME280;46188;52.324;8.032;2022-07-25T08:28:18;99686.31;;;26.09;52.32
60345;BME280;46188;52.324;8.032;2022-07-25T08:30:43;99679.03;;;26.24;51.71
60345;BME280;46188;52.324;8.032;2022-07-25T08:33:10;99672.88;;;26.22;52.18
60345;BME280;46188;52.324;8.032;2022-07-25T08:35:38;99666.47;;;26.10;51.93
60345;BME280;46188;52.324;8.032;2022-07-25T08:38:05;99673.44;;;26.00;51.85
60345;BME280;46188;52.324;8.032;2022-07-25T08:40:32;99661.47;;;25.90;52.35
60345;BME280;46188;52.324;8.032;2022-07-25T08:42:58;99667.47;;;25.81;52.54
60345;BME280;46188;52.324;8.032;2022-07-25T08:45:25;99674.09;;;25.89;52.14
60345;BME280;46188;52.324;8.032;2022-07-25T08:47:51;99677.75;;;25.88;52.38
60345;BME280;46188;52.324;8.032;2022-07-25T08:50:20;99678.22;;;25.95;50.99
60345;BME280;46188;52.324;8.032;2022-07-25T08:52:48;99681.56;;;26.00;52.31
60345;BME280;46188;52.324;8.032;2022-07-25T08:55:19;99681.91;;;25.94;52.26
60345;BME280;46188;52.324;8.032;2022-07-25T08:57:47;99683.94;;;25.90;52.26
60345;BME280;46188;52.324;8.032;2022-07-25T09:00:17;99672.47;;;25.87;52.24
60345;BME280;46188;52.324;8.032;2022-07-25T09:02:50;99677.28;;;25.82;51.81
60345;BME280;46188;52.324;8.032;2022-07-25T09:05:16;99681.19;;;25.77;51.97
60345;BME280;46188;52.324;8.032;2022-07-25T09:07:43;99671.63;;;25.72;50.85
60345;BME280;46188;52.324;8.032;2022-07-25T09:10:13;99673.66;;;25.68;51.00
60345;BME280;46188;52.324;8.032;2022-07-25T09:12:39;99671.16;;;25.65;52.05
60345;BME280;46188;52.324;8.032;2022-07-25T09:15:06;99674.09;;;25.62;52.68
60345;BME280;46188;52.324;8.032;2022-07-25T09:17:34;99678.69;;;25.60;53.60
60345;BME280;46188;52.324;8.032;2022-07-25T09:20:00;99685.34;;;25.54;52.63
60345;BME280;46188;52.324;8.032;2022-07-25T09:22:25;99681.00;;;25.52;53.01
60345;BME280;46188;52.324;8.032;2022-07-25T09:24:52;99681.22;;;25.49;52.97
60345;BME280;46188;52.324;8.032;2022-07-25T09:27:17;99676.97;;;25.45;52.82
60345;BME280;46188;52.324;8.032;2022-07-25T09:29:43;99675.22;;;25.44;53.87
60345;BME280;46188;52.324;8.032;2022-07-25T09:32:17;99677.34;;;25.38;53.78
60345;BME280;46188;52.324;8.032;2022-07-25T09:34:45;99666.97;;;25.32;51.96
60345;BME280;46188;52.324;8.032;2022-07-25T09:37:14;99673.13;;;25.34;52.42
60345;BME280;46188;52.324;8.032;2022-07-25T09:39:44;99676.69;;;25.49;54.43
60345;BME280;46188;52.324;8.032;2022-07-25T09:42:36;99667.47;;;25.81;53.58
60345;BME280;46188;52.324;8.032;2022-07-25T09:45:12;99660.22;;;26.23;53.58
60345;BME280;46188;52.324;8.032;2022-07-25T09:47:51;99658.34;;;26.50;52.22
60345;BME280;46188;52.324;8.032;2022-07-25T09:50:17;99657.75;;;26.60;51.50
60345;BME280;46188;52.324;8.032;2022-07-25T09:52:44;99649.88;;;26.82;49.59
60345;BME280;46188;52.324;8.032;2022-07-25T09:55:10;99650.00;;;26.94;49.87
60345;BME280;46188;52.324;8.032;2022-07-25T09:57:38;99656.72;;;26.88;50.65
60345;BME280;46188;52.324;8.032;2022-07-25T10:00:05;99656.50;;;27.17;49.93
60345;BME280;46188;52.324;8.032;2022-07-25T10:07:57;99654.25;;;27.36;50.43
60345;BME280;46188;52.324;8.032;2022-07-25T10:10:26;99643.84;;;27.43;49.46
60345;BME280;46188;52.324;8.032;2022-07-25T10:13:14;99635.00;;;27.65;48.53
60345;BME280;46188;52.324;8.032;2022-07-25T10:15:50;99648.22;;;27.57;49.09
60345;BME280;46188;52.324;8.032;2022-07-25T10:18:21;99651.09;;;27.42;48.67
60345;BME280;46188;52.324;8.032;2022-07-25T10:20:51;99644.34;;;27.48;48.37
60345;BME280;46188;52.324;8.032;2022-07-25T10:23:20;99658.94;;;27.58;48.24
60345;BME280;46188;52.324;8.032;2022-07-25T10:26:08;99653.63;;;27.70;47.86
60345;BME280;46188;52.324;8.032;2022-07-25T10:28:42;99646.19;;;27.85;48.07
60345;BME280;46188;52.324;8.032;2022-07-25T10:33:52;99644.22;;;28.00;47.78
60345;BME280;46188;52.324;8.032;2022-07-25T10:36:18;99637.66;;;28.15;48.54
60345;BME280;46188;52.324;8.032;2022-07-25T10:38:44;99646.06;;;28.23;47.72
60345;BME280;46188;52.324;8.032;2022-07-25T10:41:14;99645.47;;;28.31;48.39
60345;BME280;46188;52.324;8.032;2022-07-25T10:43:43;99650.59;;;28.47;47.01
60345;BME280;46188;52.324;8.032;2022-07-25T10:46:16;99649.13;;;28.54;46.80
60345;BME280;46188;52.324;8.032;2022-07-25T10:48:42;99649.72;;;28.70;47.54
60345;BME280;46188;52.324;8.032;2022-07-25T10:51:10;99640.63;;;28.94;46.88
60345;BME280;46188;52.324;8.032;2022-07-25T10:56:15;99653.16;;;28.73;46.49
60345;BME280;46188;52.324;8.032;2022-07-25T10:58:55;99637.91;;;28.71;46.51
60345;BME280;46188;52.324;8.032;2022-07-25T11:01:29;99647.00;;;28.70;47.44
60345;BME280;46188;52.324;8.032;2022-07-25T11:03:57;99641.38;;;28.85;46.14
60345;BME280;46188;52.324;8.032;2022-07-25T11:06:33;99643.56;;;28.91;47.65
60345;BME280;46188;52.324;8.032;2022-07-25T11:09:00;99643.19;;;28.84;45.83
60345;BME280;46188;52.324;8.032;2022-07-25T11:11:37;99642.44;;;28.71;47.32
60345;BME280;46188;52.324;8.032;2022-07-25T11:14:12;99642.78;;;28.66;47.11
60345;BME280;46188;52.324;8.032;2022-07-25T11:16:38;99642.78;;;28.66;47.48
60345;BME280;46188;52.324;8.032;2022-07-25T11:19:03;99638.25;;;28.67;46.45
60345;BME280;46188;52.324;8.032;2022-07-25T11:21:29;99638.59;;;28.62;46.81
60345;BME280;46188;52.324;8.032;2022-07-25T11:23:54;99637.09;;;28.58;47.21
60345;BME280;46188;52.324;8.032;2022-07-25T11:26:20;99638.94;;;28.58;47.00
60345;BME280;46188;52.324;8.032;2022-07-25T11:28:49;99634.72;;;28.53;46.73
60345;BME280;46188;52.324;8.032;2022-07-25T11:31:16;99639.66;;;28.48;46.43
60345;BME280;46188;52.324;8.032;2022-07-25T11:33:46;99634.06;;;28.50;47.27
60345;BME280;46188;52.324;8.032;2022-07-25T11:36:12;99635.16;;;28.60;48.37
60345;BME280;46188;52.324;8.032;2022-07-25T11:38:39;99641.09;;;28.88;46.50
60345;BME280;46188;52.324;8.032;2022-07-25T11:41:05;99638.16;;;29.02;47.79
60345;BME280;46188;52.324;8.032;2022-07-25T11:43:32;99645.63;;;29.23;47.20
60345;BME280;46188;52.324;8.032;2022-07-25T11:46:00;99641.69;;;29.38;46.72
60345;BME280;46188;52.324;8.032;2022-07-25T11:48:37;99635.75;;;29.44;46.02
60345;BME280;46188;52.324;8.032;2022-07-25T11:51:11;99628.09;;;29.61;46.11
60345;BME280;46188;52.324;8.032;2022-07-25T11:53:48;99630.81;;;29.50;45.53
60345;BME280;46188;52.324;8.032;2022-07-25T11:56:19;99636.50;;;29.35;44.83
60345;BME280;46188;52.324;8.032;2022-07-25T11:58:58;99636.59;;;29.22;46.13
60345;BME280;46188;52.324;8.032;2022-07-25T12:01:28;99628.31;;;29.13;46.00
60345;BME280;46188;52.324;8.032;2022-07-25T12:04:16;99630.78;;;29.16;46.64
60345;BME280;46188;52.324;8.032;2022-07-25T12:06:46;99634.00;;;29.21;46.99
60345;BME280;46188;52.324;8.032;2022-07-25T12:11:39;99634.25;;;29.06;47.61
60345;BME280;46188;52.324;8.032;2022-07-25T12:14:05;99631.66;;;29.05;47.50
60345;BME280;46188;52.324;8.032;2022-07-25T12:16:31;99623.75;;;29.02;45.49
60345;BME280;46188;52.324;8.032;2022-07-25T12:18:57;99632.25;;;29.08;46.91
60345;BME280;46188;52.324;8.032;2022-07-25T12:21:22;99631.78;;;29.03;46.98
60345;BME280;46188;52.324;8.032;2022-07-25T12:23:48;99644.72;;;29.00;47.16
60345;BME280;46188;52.324;8.032;2022-07-25T12:26:13;99639.63;;;28.84;46.26
60345;BME280;46188;52.324;8.032;2022-07-25T12:28:39;99643.06;;;28.86;46.49
60345;BME280;46188;52.324;8.032;2022-07-25T12:31:05;99651.56;;;28.81;45.87
60345;BME280;46188;52.324;8.032;2022-07-25T12:33:31;99652.47;;;28.82;45.92
60345;BME280;46188;52.324;8.032;2022-07-25T12:35:58;99647.28;;;28.79;46.61
60345;BME280;46188;52.324;8.032;2022-07-25T12:38:24;99653.53;;;28.79;45.96
60345;BME280;46188;52.324;8.032;2022-07-25T12:40:50;99642.09;;;28.87;46.83
60345;BME280;46188;52.324;8.032;2022-07-25T12:43:16;99639.78;;;28.94;45.41
60345;BME280;46188;52.324;8.032;2022-07-25T12:45:41;99651.97;;;28.99;46.04
60345;BME280;46188;52.324;8.032;2022-07-25T12:48:08;99649.50;;;28.96;45.72
60345;BME280;46188;52.324;8.032;2022-07-25T12:50:33;99652.88;;;29.00;46.94
60345;BME280;46188;52.324;8.032;2022-07-25T12:52:59;99648.16;;;29.02;47.18
60345;BME280;46188;52.324;8.032;2022-07-25T12:55:25;99650.75;;;29.03;47.52
60345;BME280;46188;52.324;8.032;2022-07-25T12:57:51;99656.53;;;28.99;47.74
60345;BME280;46188;52.324;8.032;2022-07-25T13:00:19;99665.78;;;28.85;47.78
60345;BME280;46188;52.324;8.032;2022-07-25T13:02:46;99661.19;;;28.74;48.17
60345;BME280;46188;52.324;8.032;2022-07-25T13:05:12;99660.09;;;28.77;48.53
60345;BME280;46188;52.324;8.032;2022-07-25T13:07:38;99662.69;;;28.78;48.50
60345;BME280;46188;52.324;8.032;2022-07-25T13:10:05;99666.59;;;28.74;48.38